Time;durP1;ratioP1;P1;durP2;ratioP2;P2;SDS_P1;SDS_P2;PMS_P1;PMS_P2;Temp;Humidity;BMP_temperature;BMP_pressure;BME280_temperature;BME280_humidity;BME280_pressure;Samples;Min_cycle;Max_cycle;Signal;HPM_P1;HPM_P2
2024/02/02 00:01:11;;;;;;;27.58;7.07;;;;;;;3.40;100.00;101809.38;10454003;28;20439;-80
2024/02/02 00:06:15;;;;;;;21.65;5.88;;;;;;;3.57;100.00;101788.53;10435179;28;20098;-81
2024/02/02 00:11:18;;;;;;;22.15;5.97;;;;;;;3.42;100.00;101786.31;10438765;28;20055;-81
2024/02/02 00:16:22;;;;;;;37.80;6.78;;;;;;;3.30;100.00;101787.56;10435105;28;20053;-80
2024/02/02 00:21:26;;;;;;;40.60;8.25;;;;;;;3.63;100.00;101782.16;10441408;28;20045;-80
2024/02/02 00:26:30;;;;;;;22.85;6.20;;;;;;;3.34;100.00;101765.28;10437233;28;20195;-80
2024/02/02 00:31:33;;;;;;;30.98;8.52;;;;;;;3.43;100.00;101764.16;10454692;28;20056;-78
2024/02/02 00:36:37;;;;;;;29.90;6.13;;;;;;;3.54;100.00;101762.06;10445712;28;20064;-82
2024/02/02 00:41:40;;;;;;;23.67;6.65;;;;;;;3.45;100.00;101755.22;10438280;28;20108;-81
2024/02/02 00:46:43;;;;;;;22.95;5.70;;;;;;;3.47;100.00;101760.50;10436824;28;20055;-80
2024/02/02 00:51:47;;;;;;;31.42;6.63;;;;;;;3.46;100.00;101750.78;10434548;28;20049;-81
2024/02/02 00:56:50;;;;;;;27.35;7.53;;;;;;;3.52;100.00;101747.94;10433889;28;20049;-80
2024/02/02 01:01:54;;;;;;;31.60;7.32;;;;;;;3.43;100.00;101756.19;10451208;28;20118;-79
2024/02/02 01:06:58;;;;;;;29.02;7.75;;;;;;;3.90;100.00;101756.53;10434914;28;20514;-79
2024/02/02 01:12:02;;;;;;;23.67;7.18;;;;;;;3.55;100.00;101762.94;10448300;28;20049;-81
2024/02/02 01:17:05;;;;;;;31.10;6.20;;;;;;;3.43;100.00;101774.78;10452246;28;20081;-80
2024/02/02 01:22:10;;;;;;;34.78;8.98;;;;;;;3.63;100.00;101772.41;10443364;28;20045;-80
2024/02/02 01:27:13;;;;;;;39.08;10.07;;;;;;;3.77;100.00;101774.66;10443388;28;20045;-82
2024/02/02 01:32:17;;;;;;;40.03;9.95;;;;;;;3.86;100.00;101774.34;10433260;28;20398;-80
2024/02/02 01:37:21;;;;;;;36.10;9.93;;;;;;;3.93;100.00;101775.91;10443293;28;20452;-80
2024/02/02 01:42:24;;;;;;;28.85;10.05;;;;;;;3.84;100.00;101780.63;10427329;28;20609;-80
2024/02/02 01:47:28;;;;;;;38.95;11.50;;;;;;;3.93;100.00;101783.03;10463607;28;20052;-80
2024/02/02 01:52:32;;;;;;;33.40;11.32;;;;;;;3.91;100.00;101780.41;10446574;28;20044;-81
2024/02/02 01:57:36;;;;;;;47.67;13.25;;;;;;;3.78;100.00;101770.19;10462828;28;20056;-79
2024/02/02 02:02:39;;;;;;;24.00;10.77;;;;;;;3.72;100.00;101773.91;10451318;28;20188;-80
2024/02/02 02:07:44;;;;;;;37.25;11.50;;;;;;;4.02;100.00;101761.44;10444864;28;20112;-79
2024/02/02 02:12:50;;;;;;;36.17;12.90;;;;;;;3.84;100.00;101756.69;10437954;28;20059;-80
2024/02/02 02:17:53;;;;;;;40.08;13.20;;;;;;;3.77;100.00;101752.50;10457139;28;20040;-78
2024/02/02 02:22:59;;;;;;;42.38;12.90;;;;;;;3.82;100.00;101740.81;10443462;28;20048;-80
2024/02/02 02:28:02;;;;;;;45.42;15.65;;;;;;;3.50;100.00;101755.09;10434828;28;20055;-80
2024/02/02 02:33:06;;;;;;;43.05;13.23;;;;;;;3.66;100.00;101750.19;10439674;28;20045;-80
2024/02/02 02:38:10;;;;;;;27.80;11.02;;;;;;;3.54;100.00;101734.59;10454062;28;20059;-79
2024/02/02 02:43:13;;;;;;;49.85;19.33;;;;;;;3.46;100.00;101722.44;10482772;28;21015;-79
2024/02/02 02:48:16;;;;;;;54.90;18.98;;;;;;;3.60;100.00;101729.13;10475366;28;20071;-80
2024/02/02 02:53:21;;;;;;;36.67;15.57;;;;;;;3.47;100.00;101725.94;10458137;28;20059;-80
2024/02/02 02:58:24;;;;;;;47.72;16.65;;;;;;;3.50;100.00;101717.88;10444988;28;20045;-80
2024/02/02 03:03:27;;;;;;;40.83;14.40;;;;;;;3.43;100.00;101719.88;10440683;28;20473;-80
2024/02/02 03:08:32;;;;;;;30.27;11.40;;;;;;;3.30;100.00;101709.66;10444459;28;20052;-79
2024/02/02 03:13:35;;;;;;;20.38;10.13;;;;;;;3.47;100.00;101694.94;10461541;28;20112;-80
2024/02/02 03:18:38;;;;;;;26.50;11.63;;;;;;;3.45;100.00;101698.56;10463884;28;20072;-80
2024/02/02 03:23:45;;;;;;;21.10;8.90;;;;;;;3.68;100.00;101692.53;10470999;28;20609;-80
2024/02/02 03:28:48;;;;;;;27.38;8.35;;;;;;;3.65;100.00;101677.56;10436604;28;20052;-79
2024/02/02 03:33:51;;;;;;;31.80;10.55;;;;;;;3.90;100.00;101666.16;10444095;28;20045;-81
2024/02/02 03:38:56;;;;;;;38.10;10.30;;;;;;;4.27;96.28;101672.88;10431594;28;20060;-79
2024/02/02 03:43:59;;;;;;;25.15;7.60;;;;;;;4.17;95.33;101670.53;10440031;28;20460;-80
2024/02/02 03:49:02;;;;;;;13.60;6.10;;;;;;;4.04;96.79;101679.84;10459291;28;20052;-80
2024/02/02 03:54:06;;;;;;;35.17;10.35;;;;;;;3.97;96.70;101685.41;10448918;28;20048;-80
2024/02/02 03:59:10;;;;;;;30.33;10.07;;;;;;;4.04;96.15;101693.13;10435197;28;20129;-79
2024/02/02 04:04:14;;;;;;;31.83;9.55;;;;;;;3.91;96.93;101687.34;10422373;28;20053;-80
2024/02/02 04:09:18;;;;;;;32.65;10.43;;;;;;;4.17;95.78;101715.75;10460901;28;21177;-79
2024/02/02 04:14:22;;;;;;;31.98;9.35;;;;;;;4.27;94.95;101710.97;10459689;28;20063;-79
2024/02/02 04:19:25;;;;;;;25.98;7.88;;;;;;;3.72;98.53;101708.31;10426653;28;20175;-81
2024/02/02 04:24:29;;;;;;;31.00;8.77;;;;;;;3.75;98.93;101698.53;10438347;28;20504;-80
2024/02/02 04:29:33;;;;;;;28.42;10.32;;;;;;;4.35;95.49;101684.13;10421799;28;20048;-80
2024/02/02 04:34:36;;;;;;;38.50;10.25;;;;;;;4.04;98.22;101674.53;10442597;28;20048;-80
2024/02/02 04:39:41;;;;;;;18.00;7.43;;;;;;;4.02;96.72;101673.69;10455688;28;21025;-80
2024/02/02 04:44:44;;;;;;;32.65;10.05;;;;;;;3.95;99.05;101645.59;10453986;28;20044;-80
2024/02/02 04:49:47;;;;;;;31.55;9.38;;;;;;;4.12;97.90;101643.22;10431252;28;20053;-80
2024/02/02 04:54:53;;;;;;;31.58;9.98;;;;;;;3.76;100.00;101639.13;10470138;28;20101;-80
2024/02/02 04:59:56;;;;;;;35.28;10.77;;;;;;;3.95;100.00;101642.94;10462742;28;20055;-79
2024/02/02 05:04:59;;;;;;;35.00;10.68;;;;;;;3.90;100.00;101639.56;10454888;28;20068;-80
2024/02/02 05:10:05;;;;;;;36.72;12.25;;;;;;;4.19;100.00;101633.22;10452273;28;20063;-80
2024/02/02 05:15:09;;;;;;;35.55;12.65;;;;;;;4.05;100.00;101623.06;10440345;28;20049;-81
2024/02/02 05:20:12;;;;;;;25.70;7.88;;;;;;;3.20;100.00;101621.41;10436656;28;20055;-80
2024/02/02 05:25:17;;;;;;;37.22;13.85;;;;;;;3.44;100.00;101598.53;10461623;28;20056;-80
2024/02/02 05:30:21;;;;;;;43.15;13.35;;;;;;;3.57;100.00;101564.47;10456087;28;20116;-81
2024/02/02 05:35:24;;;;;;;21.58;7.65;;;;;;;3.26;100.00;101531.81;10450915;28;20064;-80
2024/02/02 05:40:29;;;;;;;43.35;15.10;;;;;;;3.34;100.00;101528.00;10446937;28;20053;-80
2024/02/02 05:45:36;;;;;;;45.03;13.80;;;;;;;3.49;100.00;101527.53;10420622;28;20057;-81
2024/02/02 05:50:39;;;;;;;38.38;12.90;;;;;;;3.33;100.00;101552.84;10453031;28;20108;-79
2024/02/02 05:55:43;;;;;;;35.00;10.07;;;;;;;3.36;100.00;101539.47;10453410;28;20157;-80
2024/02/02 06:00:49;;;;;;;37.03;12.52;;;;;;;3.87;100.00;101539.50;10434163;28;20053;-79
2024/02/02 06:05:52;;;;;;;27.02;10.52;;;;;;;3.68;100.00;101533.94;10428521;28;20045;-80
2024/02/02 06:10:57;;;;;;;19.23;9.32;;;;;;;3.46;100.00;101548.88;10423056;28;20109;-79
2024/02/02 06:16:00;;;;;;;31.60;8.77;;;;;;;3.52;100.00;101537.19;10444950;28;20047;-80
2024/02/02 06:21:03;;;;;;;30.52;12.52;;;;;;;3.84;100.00;101530.75;10446546;28;20041;-80
2024/02/02 06:26:07;;;;;;;35.92;12.77;;;;;;;4.04;100.00;101517.63;10455652;28;20193;-80
2024/02/02 06:31:11;;;;;;;42.85;11.82;;;;;;;3.84;100.00;101504.16;10455484;28;20048;-79
2024/02/02 06:36:14;;;;;;;44.05;12.35;;;;;;;3.74;100.00;101490.34;10422221;28;20041;-81
2024/02/02 06:41:18;;;;;;;34.47;10.70;;;;;;;3.59;100.00;101480.22;10417653;28;21541;-80
2024/02/02 06:46:21;;;;;;;29.95;7.90;;;;;;;3.50;100.00;101490.25;10458286;28;20577;-79
2024/02/02 06:51:24;;;;;;;31.40;10.02;;;;;;;3.77;100.00;101492.88;10423875;28;20135;-80
2024/02/02 06:56:37;;;;;;;26.15;9.43;;;;;;;3.69;100.00;101493.16;10431503;28;20052;-81
2024/02/02 07:01:40;;;;;;;35.17;10.43;;;;;;;4.22;100.00;101496.59;10430682;28;20056;-79
2024/02/02 07:06:44;;;;;;;23.35;7.85;;;;;;;3.82;100.00;101498.91;10460330;28;20150;-80
2024/02/02 07:11:58;;;;;;;33.70;9.90;;;;;;;4.01;100.00;101508.91;10461402;28;20049;-81
2024/02/02 07:17:01;;;;;;;24.77;7.97;;;;;;;3.99;100.00;101516.94;10450503;28;20068;-81
2024/02/02 07:22:28;;;;;;;20.67;7.97;;;;;;;4.13;100.00;101511.97;10437012;28;20075;-80
2024/02/02 07:27:52;;;;;;;19.17;6.38;;;;;;;3.98;100.00;101499.25;10448188;28;20059;-82
2024/02/02 07:32:56;;;;;;;26.50;5.63;;;;;;;4.02;100.00;101505.31;10458900;28;20048;-80
2024/02/02 07:38:05;;;;;;;17.52;5.28;;;;;;;3.99;97.30;101500.97;10426784;28;20055;-80
2024/02/02 07:43:09;;;;;;;11.85;3.95;;;;;;;4.42;95.98;101494.09;10457663;28;20060;-80
2024/02/02 07:48:12;;;;;;;26.10;6.70;;;;;;;4.28;96.47;101507.91;10436765;28;20103;-80
2024/02/02 07:53:16;;;;;;;17.50;4.35;;;;;;;3.99;97.29;101506.28;10435637;28;21117;-80
2024/02/02 07:58:21;;;;;;;16.25;4.70;;;;;;;4.12;95.80;101507.59;10428617;28;20052;-80
2024/02/02 08:03:27;;;;;;;27.85;6.60;;;;;;;4.17;95.88;101502.97;10460626;28;20055;-81
2024/02/02 08:08:32;;;;;;;20.98;5.43;;;;;;;4.18;94.64;101506.50;10438934;28;20052;-80
2024/02/02 08:13:37;;;;;;;31.13;5.93;;;;;;;4.15;94.16;101486.19;10421748;28;20096;-81
2024/02/02 08:18:40;;;;;;;18.88;4.20;;;;;;;4.14;93.71;101515.50;10428929;28;20055;-79
2024/02/02 08:23:44;;;;;;;18.95;4.50;;;;;;;4.41;91.81;101484.34;10438385;28;20045;-79
2024/02/02 08:28:48;;;;;;;25.45;4.65;;;;;;;4.46;90.74;101479.72;10419065;28;20049;-80
2024/02/02 08:33:57;;;;;;;18.88;4.65;;;;;;;4.46;89.37;101476.19;10452760;28;20049;-81
2024/02/02 08:39:00;;;;;;;12.18;4.43;;;;;;;4.57;88.81;101474.00;10427498;28;20128;-80
2024/02/02 08:44:08;;;;;;;25.88;7.40;;;;;;;4.44;89.77;101460.28;10436843;28;20520;-80
2024/02/02 08:49:33;;;;;;;14.80;4.50;;;;;;;4.66;88.73;101446.16;10435634;28;20049;-80
2024/02/02 08:54:46;;;;;;;16.52;5.60;;;;;;;4.37;89.91;101443.69;10437216;28;20059;-81
2024/02/02 08:59:52;;;;;;;18.15;6.47;;;;;;;4.51;88.01;101435.19;10436539;28;20048;-80
2024/02/02 09:05:06;;;;;;;17.92;5.93;;;;;;;4.65;89.10;101423.13;10453440;28;20045;-79
2024/02/02 09:10:43;;;;;;;17.67;5.28;;;;;;;4.51;89.73;101448.50;10453987;28;20062;-80
2024/02/02 09:15:49;;;;;;;14.88;5.28;;;;;;;4.26;91.22;101431.75;10445704;28;20053;-80
2024/02/02 09:20:52;;;;;;;16.10;3.63;;;;;;;4.52;88.61;101436.03;10471111;28;20045;-82
2024/02/02 09:25:55;;;;;;;19.58;7.05;;;;;;;4.39;89.66;101439.19;10463252;28;20068;-81
2024/02/02 09:31:01;;;;;;;25.90;7.72;;;;;;;4.57;88.42;101439.41;10454011;28;20044;-79
2024/02/02 09:36:06;;;;;;;19.80;5.10;;;;;;;4.56;89.63;101417.25;10425413;28;20140;-79
2024/02/02 09:41:37;;;;;;;24.20;6.45;;;;;;;4.31;91.44;101412.03;10442503;28;20056;-80
2024/02/02 09:46:49;;;;;;;23.00;7.40;;;;;;;4.82;88.69;101440.16;10467144;28;20051;-80
2024/02/02 09:51:58;;;;;;;;;;;;;;;4.37;90.06;101438.38;10469455;28;20040;-79
2024/02/02 09:57:08;;;;;;;21.90;6.90;;;;;;;4.70;88.56;101400.72;10453671;28;20336;-79
2024/02/02 10:02:27;;;;;;;16.23;5.60;;;;;;;4.72;89.44;101408.66;10437241;28;20168;-80
2024/02/02 10:07:43;;;;;;;13.50;6.35;;;;;;;4.73;88.91;101407.72;10435282;28;20041;-80
2024/02/02 10:12:56;;;;;;;31.70;9.80;;;;;;;4.72;89.18;101382.03;10438431;28;20037;-80
2024/02/02 10:18:25;;;;;;;20.45;7.53;;;;;;;4.99;88.73;101399.56;10421973;28;20045;-79
2024/02/02 10:23:55;;;;;;;23.17;8.50;;;;;;;4.92;89.18;101408.72;10433890;28;20049;-80
2024/02/02 10:29:13;;;;;;;26.60;7.97;;;;;;;4.95;87.40;101387.28;10442327;28;20171;-81
2024/02/02 10:34:30;;;;;;;24.20;10.05;;;;;;;5.15;88.27;101401.56;10437747;28;20058;-78
2024/02/02 10:39:49;;;;;;;23.60;9.70;;;;;;;4.77;89.95;101422.63;10440139;28;20053;-80
2024/02/02 10:45:03;;;;;;;30.35;9.60;;;;;;;5.17;88.62;101415.72;10435344;28;20060;-80
2024/02/02 10:50:20;;;;;;;24.90;9.68;;;;;;;5.18;89.16;101406.78;10429359;28;20057;-79
2024/02/02 10:55:40;;;;;;;20.88;10.07;;;;;;;4.90;91.09;101410.56;10419461;28;20232;-80
2024/02/02 11:00:52;;;;;;;30.80;10.93;;;;;;;5.43;88.65;101395.94;10419700;28;20045;-80
2024/02/02 11:06:08;;;;;;;24.52;9.00;;;;;;;5.15;90.34;101378.47;10419681;28;20041;-79
2024/02/02 11:11:14;;;;;;;20.70;10.13;;;;;;;5.28;89.10;101377.00;10428379;28;20056;-80
2024/02/02 11:16:43;;;;;;;22.50;9.10;;;;;;;5.26;89.72;101367.34;10425154;28;20053;-79
2024/02/02 11:22:07;;;;;;;28.13;12.15;;;;;;;5.26;91.69;101354.03;10445091;28;20113;-79
2024/02/02 11:27:16;;;;;;;30.20;10.73;;;;;;;5.18;92.91;101357.03;10430273;28;20112;-77
2024/02/02 11:32:39;;;;;;;25.40;8.75;;;;;;;5.01;92.99;101338.25;10427445;28;20127;-77
2024/02/02 11:37:56;;;;;;;41.03;11.30;;;;;;;5.23;92.66;101333.72;10434097;28;20141;-77
2024/02/02 11:43:00;;;;;;;37.58;14.32;;;;;;;5.12;94.92;101349.31;10432104;28;20287;-81
2024/02/02 11:48:04;;;;;;;18.88;9.50;;;;;;;5.28;91.55;101349.50;10439893;28;20051;-79
2024/02/02 11:53:15;;;;;;;34.60;13.55;;;;;;;5.22;94.28;101326.66;10438237;28;20041;-79
2024/02/02 11:58:20;;;;;;;33.80;13.05;;;;;;;5.38;92.95;101312.69;10437874;28;20068;-79
2024/02/02 12:03:31;;;;;;;25.23;11.10;;;;;;;5.05;95.20;101321.22;10455990;28;20071;-80
2024/02/02 12:08:42;;;;;;;29.60;9.55;;;;;;;5.35;93.13;101297.69;10457252;28;20100;-80
2024/02/02 12:13:47;;;;;;;23.73;11.57;;;;;;;5.47;92.74;101282.94;10435043;28;20064;-81
2024/02/02 12:18:50;;;;;;;30.30;11.55;;;;;;;5.65;91.20;101279.44;10437159;28;20048;-81
2024/02/02 12:23:55;;;;;;;30.80;10.77;;;;;;;6.15;89.29;101260.19;10428886;28;20044;-81
2024/02/02 12:28:58;;;;;;;29.52;9.90;;;;;;;6.49;86.13;101282.53;10452804;28;20057;-80
2024/02/02 12:34:02;;;;;;;21.08;10.07;;;;;;;6.73;84.06;101263.56;10422683;28;20441;-79
2024/02/02 12:39:06;;;;;;;26.65;12.13;;;;;;;6.78;84.33;101267.72;10442352;28;21135;-80
2024/02/02 12:44:10;;;;;;;30.40;14.60;;;;;;;6.48;86.63;101261.25;10439281;28;20057;-80
2024/02/02 12:49:13;;;;;;;27.75;12.00;;;;;;;6.25;89.60;101257.03;10433922;28;20064;-79
2024/02/02 12:54:19;;;;;;;30.83;12.75;;;;;;;6.09;91.57;101249.81;10442962;28;20072;-81
2024/02/02 12:59:23;;;;;;;27.25;11.88;;;;;;;5.70;93.50;101240.13;10457520;28;21434;-80
2024/02/02 13:04:27;;;;;;;31.85;13.05;;;;;;;6.44;88.96;101230.31;10457786;28;20057;-80
2024/02/02 13:09:32;;;;;;;31.00;15.27;;;;;;;6.16;92.06;101229.88;10458334;28;20049;-80
2024/02/02 13:14:36;;;;;;;31.73;14.73;;;;;;;6.35;90.52;101226.31;10447708;28;20048;-78
2024/02/02 13:19:42;;;;;;;26.95;13.95;;;;;;;6.25;92.24;101233.03;10447950;28;20098;-79
2024/02/02 13:24:50;;;;;;;31.50;14.20;;;;;;;6.45;92.14;101234.72;10420108;28;20045;-77
2024/02/02 13:29:56;;;;;;;33.30;17.52;;;;;;;6.52;92.35;101244.13;10427779;28;20049;-79
2024/02/02 13:35:00;;;;;;;43.30;21.60;;;;;;;6.09;96.55;101204.47;10426402;28;20052;-78
2024/02/02 13:40:09;;;;;;;35.35;16.88;;;;;;;5.83;98.58;101208.38;10458871;28;20037;-80
2024/02/02 13:45:14;;;;;;;37.40;17.95;;;;;;;6.26;97.34;101206.28;10447631;28;20065;-80
2024/02/02 13:50:19;;;;;;;39.83;17.85;;;;;;;6.03;99.35;101190.53;10434169;28;20453;-78
2024/02/02 13:55:29;;;;;;;40.47;18.02;;;;;;;5.82;100.00;101182.66;10442987;28;20053;-79
2024/02/02 14:00:32;;;;;;;46.72;25.73;;;;;;;6.37;98.22;101190.59;10435697;28;20052;-80
2024/02/02 14:05:36;;;;;;;40.28;20.73;;;;;;;6.21;98.69;101194.13;10418187;28;20045;-78
2024/02/02 14:10:45;;;;;;;36.72;18.40;;;;;;;5.88;100.00;101218.84;10430426;28;20072;-77
2024/02/02 14:15:50;;;;;;;41.92;20.85;;;;;;;5.95;100.00;101202.47;10431585;28;20056;-77
2024/02/02 14:20:53;;;;;;;52.83;25.63;;;;;;;6.09;100.00;101196.44;10436560;28;20037;-79
2024/02/02 14:26:09;;;;;;;45.10;19.75;;;;;;;5.64;100.00;101215.53;10426868;28;20049;-79
2024/02/02 14:31:12;;;;;;;49.53;26.48;;;;;;;6.03;100.00;101220.75;10438333;28;20154;-79
2024/02/02 14:36:15;;;;;;;43.28;24.55;;;;;;;5.92;100.00;101215.97;10414002;28;20359;-79
2024/02/02 14:41:19;;;;;;;36.47;18.17;;;;;;;5.88;100.00;101205.50;10442665;28;20052;-79
2024/02/02 14:46:22;;;;;;;53.38;28.10;;;;;;;6.34;99.46;101201.44;10419268;28;20059;-79
2024/02/02 14:51:25;;;;;;;41.45;19.83;;;;;;;5.91;100.00;101206.22;10439571;28;20040;-79
2024/02/02 14:56:31;;;;;;;42.95;21.23;;;;;;;5.87;100.00;101193.09;10431245;28;20049;-80
2024/02/02 15:01:34;;;;;;;47.40;21.00;;;;;;;5.89;100.00;101192.06;10422493;28;20041;-79
2024/02/02 15:06:38;;;;;;;46.30;24.10;;;;;;;6.20;100.00;101203.94;10432335;28;20104;-80
2024/02/02 15:11:44;;;;;;;47.45;25.77;;;;;;;6.36;100.00;101202.22;10450512;28;20048;-79
2024/02/02 15:16:47;;;;;;;41.30;20.52;;;;;;;5.72;100.00;101200.88;10457626;28;20067;-80
2024/02/02 15:21:50;;;;;;;46.72;23.70;;;;;;;6.17;100.00;101194.28;10440967;28;20186;-81
2024/02/02 15:26:57;;;;;;;39.08;19.88;;;;;;;5.67;100.00;101178.06;10425738;28;20096;-79
2024/02/02 15:32:00;;;;;;;42.80;20.58;;;;;;;5.48;100.00;101186.91;10455100;28;20637;-79
2024/02/02 15:37:03;;;;;;;40.28;20.23;;;;;;;5.71;100.00;101200.97;10440821;28;20417;-80
2024/02/02 15:42:08;;;;;;;41.03;22.42;;;;;;;5.79;100.00;101190.81;10453906;28;20475;-80
2024/02/02 15:47:11;;;;;;;40.70;21.83;;;;;;;5.93;100.00;101208.81;10442481;28;20041;-79
2024/02/02 15:52:14;;;;;;;29.00;17.52;;;;;;;5.80;100.00;101221.00;10457023;28;20415;-79
2024/02/02 15:57:18;;;;;;;43.20;23.48;;;;;;;5.78;100.00;101202.41;10428142;28;20045;-79
2024/02/02 16:02:21;;;;;;;31.05;16.58;;;;;;;5.78;100.00;101237.06;10422996;28;20055;-79
2024/02/02 16:07:25;;;;;;;33.75;19.48;;;;;;;5.28;100.00;101233.16;10431832;28;20051;-79
2024/02/02 16:12:31;;;;;;;32.05;14.73;;;;;;;5.25;100.00;101253.75;10426680;28;20135;-79
2024/02/02 16:17:36;;;;;;;42.65;21.30;;;;;;;5.63;100.00;101232.47;10417923;28;20204;-77
2024/02/02 16:22:41;;;;;;;49.67;23.52;;;;;;;5.29;100.00;101226.00;10421523;28;20289;-78
2024/02/02 16:27:45;;;;;;;26.90;13.88;;;;;;;5.27;100.00;101226.09;10405065;28;20112;-80
2024/02/02 16:32:48;;;;;;;41.22;18.90;;;;;;;5.54;100.00;101238.22;10412605;28;20045;-78
2024/02/02 16:37:52;;;;;;;34.72;16.08;;;;;;;5.36;100.00;101245.25;10422278;28;21223;-78
2024/02/02 16:42:56;;;;;;;29.83;15.82;;;;;;;5.41;100.00;101233.47;10427199;28;20207;-79
2024/02/02 16:47:59;;;;;;;37.10;20.98;;;;;;;5.47;100.00;101233.16;10431431;28;20045;-78
2024/02/02 16:53:03;;;;;;;37.78;20.02;;;;;;;5.68;100.00;101239.31;10432552;28;20063;-78
2024/02/02 16:58:08;;;;;;;36.58;17.27;;;;;;;5.57;100.00;101222.06;10400690;28;20068;-77
2024/02/02 17:03:11;;;;;;;35.55;18.58;;;;;;;5.60;100.00;101220.16;10418810;28;20474;-78
2024/02/02 17:08:15;;;;;;;42.00;24.02;;;;;;;5.43;100.00;101223.59;10449227;28;20049;-80
2024/02/02 17:13:21;;;;;;;49.63;26.20;;;;;;;5.66;100.00;101227.84;10453259;28;20045;-80
2024/02/02 17:18:24;;;;;;;35.28;17.52;;;;;;;5.70;100.00;101237.44;10441536;28;20059;-80
2024/02/02 17:23:27;;;;;;;48.33;24.85;;;;;;;5.91;100.00;101254.22;10440187;28;20060;-80
2024/02/02 17:28:32;;;;;;;33.28;16.35;;;;;;;5.85;100.00;101249.19;10448774;28;20065;-79
2024/02/02 17:33:35;;;;;;;52.65;27.40;;;;;;;5.84;100.00;101231.47;10434878;28;20079;-79
2024/02/02 17:38:40;;;;;;;47.25;21.58;;;;;;;5.83;100.00;101235.03;10467716;28;20218;-79
2024/02/02 17:43:46;;;;;;;39.00;18.13;;;;;;;5.66;100.00;101242.97;10453631;28;20044;-79
2024/02/02 17:48:49;;;;;;;46.63;21.95;;;;;;;5.71;100.00;101214.31;10454426;28;20131;-80
2024/02/02 17:53:54;;;;;;;54.38;27.83;;;;;;;5.78;100.00;101229.06;10471236;28;20048;-80
2024/02/02 17:58:58;;;;;;;32.80;17.67;;;;;;;5.59;100.00;101244.19;10472931;28;20175;-80
2024/02/02 18:04:01;;;;;;;59.65;31.65;;;;;;;5.83;100.00;101228.84;10459360;28;20052;-80
2024/02/02 18:09:06;;;;;;;45.90;19.10;;;;;;;5.80;100.00;101213.00;10457419;28;20052;-79
2024/02/02 18:14:10;;;;;;;48.17;24.13;;;;;;;5.75;100.00;101221.22;10442662;28;20056;-80
2024/02/02 18:19:13;;;;;;;45.35;18.75;;;;;;;5.66;100.00;101211.84;10452523;28;20056;-81
2024/02/02 18:24:17;;;;;;;61.00;25.98;;;;;;;5.67;100.00;101200.25;10450157;28;20048;-81
2024/02/02 18:29:21;;;;;;;45.92;22.52;;;;;;;5.66;100.00;101213.66;10451695;28;20049;-80
2024/02/02 18:34:24;;;;;;;36.45;19.20;;;;;;;5.59;100.00;101210.41;10438431;28;20045;-81
2024/02/02 18:39:28;;;;;;;59.17;24.02;;;;;;;5.71;100.00;101215.16;10444956;28;20131;-80
2024/02/02 18:44:32;;;;;;;51.65;22.25;;;;;;;5.68;100.00;101214.47;10432174;28;20052;-81
2024/02/02 18:49:35;;;;;;;58.20;25.15;;;;;;;6.15;100.00;101212.16;10429343;28;20041;-81
2024/02/02 18:54:39;;;;;;;41.00;21.45;;;;;;;5.99;100.00;101213.84;10447098;28;21655;-81
2024/02/02 18:59:43;;;;;;;40.50;20.90;;;;;;;5.85;100.00;101211.00;10426596;28;20495;-81
2024/02/02 19:04:46;;;;;;;52.83;25.85;;;;;;;6.26;100.00;101226.78;10427111;28;20041;-81
2024/02/02 19:09:50;;;;;;;62.17;31.10;;;;;;;6.16;100.00;101227.22;10449095;28;20049;-81
2024/02/02 19:14:57;;;;;;;53.63;26.02;;;;;;;6.02;100.00;101221.69;10438241;28;20051;-80
2024/02/02 19:20:01;;;;;;;61.22;29.27;;;;;;;5.94;100.00;101218.53;10422858;28;20056;-77
2024/02/02 19:25:05;;;;;;;51.88;23.65;;;;;;;6.10;100.00;101216.84;10435191;28;20068;-78
2024/02/02 19:30:11;;;;;;;62.60;31.75;;;;;;;6.18;100.00;101229.81;10420832;28;20756;-80
2024/02/02 19:35:14;;;;;;;54.45;28.80;;;;;;;6.17;100.00;101233.41;10433241;28;20494;-79
2024/02/02 19:40:17;;;;;;;60.83;29.52;;;;;;;6.39;100.00;101255.44;10440240;28;20074;-80
2024/02/02 19:45:22;;;;;;;63.42;30.95;;;;;;;6.50;100.00;101248.69;10445398;28;20048;-79
2024/02/02 19:50:25;;;;;;;58.25;26.55;;;;;;;6.49;100.00;101241.63;10425884;28;20049;-79
2024/02/02 19:55:30;;;;;;;55.10;27.40;;;;;;;6.56;100.00;101253.72;10423750;28;20053;-79
2024/02/02 20:00:34;;;;;;;60.53;30.77;;;;;;;6.60;100.00;101247.28;10430124;28;20045;-78
2024/02/02 20:05:37;;;;;;;58.75;30.45;;;;;;;6.82;100.00;101258.59;10422179;28;20535;-81
2024/02/02 20:10:40;;;;;;;50.17;22.02;;;;;;;6.34;100.00;101267.28;10436587;28;20082;-78
2024/02/02 20:15:47;;;;;;;47.53;22.60;;;;;;;6.33;100.00;101250.38;10424921;28;20049;-79
2024/02/02 20:20:53;;;;;;;50.42;25.38;;;;;;;6.63;100.00;101236.44;10449654;28;20072;-82
2024/02/02 20:25:56;;;;;;;55.33;29.40;;;;;;;6.77;100.00;101255.28;10448349;28;20041;-79
2024/02/02 20:31:02;;;;;;;51.15;23.90;;;;;;;6.76;100.00;101248.22;10432985;28;20051;-79
2024/02/02 20:36:06;;;;;;;55.17;27.60;;;;;;;6.76;100.00;101234.03;10427918;28;20048;-81
2024/02/02 20:41:09;;;;;;;43.63;21.45;;;;;;;6.45;100.00;101238.25;10437414;28;20569;-82
2024/02/02 20:46:14;;;;;;;52.20;25.02;;;;;;;6.60;100.00;101232.13;10448988;28;20052;-81
2024/02/02 20:51:17;;;;;;;55.80;24.73;;;;;;;6.60;100.00;101221.44;10439501;28;20576;-82
2024/02/02 20:56:21;;;;;;;57.65;29.48;;;;;;;6.48;100.00;101216.75;10451700;28;20062;-79
2024/02/02 21:01:25;;;;;;;62.20;29.08;;;;;;;6.54;100.00;101219.09;10428315;28;20060;-81
2024/02/02 21:06:28;;;;;;;56.30;25.80;;;;;;;6.55;100.00;101217.28;10418743;28;20052;-80
2024/02/02 21:11:32;;;;;;;45.58;21.08;;;;;;;6.41;100.00;101209.97;10442789;28;20051;-81
2024/02/02 21:16:36;;;;;;;60.97;30.63;;;;;;;6.68;100.00;101206.84;10452099;28;20421;-82
2024/02/02 21:21:40;;;;;;;48.67;21.35;;;;;;;6.46;100.00;101210.59;10440154;28;20041;-81
2024/02/02 21:26:43;;;;;;;50.22;21.67;;;;;;;6.54;100.00;101212.91;10419189;28;20137;-80
2024/02/02 21:31:48;;;;;;;32.38;17.73;;;;;;;6.42;100.00;101213.50;10416346;28;20052;-80
2024/02/02 21:36:51;;;;;;;53.78;27.33;;;;;;;6.58;100.00;101199.31;10428701;28;20519;-80
2024/02/02 21:41:54;;;;;;;64.78;29.90;;;;;;;6.87;100.00;101226.34;10446663;28;20416;-81
2024/02/02 21:46:59;;;;;;;76.40;34.95;;;;;;;7.02;100.00;101206.84;10450805;28;20119;-81
2024/02/02 21:52:02;;;;;;;71.03;32.45;;;;;;;7.04;100.00;101236.13;10431489;28;20044;-81
2024/02/02 21:57:05;;;;;;;72.70;31.25;;;;;;;6.88;100.00;101229.88;10449850;28;20055;-80
2024/02/02 22:02:10;;;;;;;77.88;34.75;;;;;;;6.83;100.00;101225.63;10458580;28;20209;-81
2024/02/02 22:07:13;;;;;;;49.63;23.52;;;;;;;6.52;100.00;101218.31;10428385;28;20052;-81
2024/02/02 22:12:16;;;;;;;71.40;33.42;;;;;;;6.68;100.00;101212.19;10413623;28;20739;-80
2024/02/02 22:17:21;;;;;;;89.55;38.97;;;;;;;7.36;100.00;101209.50;10418646;28;20573;-80
2024/02/02 22:22:24;;;;;;;96.72;40.85;;;;;;;6.98;100.00;101212.44;10423587;28;20632;-81
2024/02/02 22:27:27;;;;;;;91.80;41.70;;;;;;;6.66;100.00;101201.56;10455587;28;21126;-81
2024/02/02 22:32:37;;;;;;;65.72;27.48;;;;;;;6.69;100.00;101205.88;10431377;28;20511;-80
2024/02/02 22:37:43;;;;;;;101.05;43.10;;;;;;;6.82;100.00;101198.97;10437476;28;20045;-80
2024/02/02 22:42:46;;;;;;;80.45;36.38;;;;;;;6.73;100.00;101205.66;10442083;28;20423;-81
2024/02/02 22:47:51;;;;;;;87.50;38.85;;;;;;;6.84;100.00;101192.63;10431827;28;20064;-80
2024/02/02 22:52:54;;;;;;;88.03;36.22;;;;;;;6.87;100.00;101180.03;10428091;28;20771;-80
2024/02/02 22:57:57;;;;;;;89.97;40.65;;;;;;;6.96;100.00;101200.94;10454676;28;20067;-81
2024/02/02 23:03:02;;;;;;;83.60;36.90;;;;;;;6.94;100.00;101200.16;10445606;28;20127;-80